Ebern-Sendelbach Airport


Codes: EDQR/
Name: Ebern-Sendelbach Airport
City: Ebern
Country: Germany
Elevation: 827 ft.

Photos at Ebern-Sendelbach Airport


   Photos courtesy of SpottingLog. You can add your own sightings and photos by signing up for a free trial today.



No photos found.

Weather at Ebern-Sendelbach Airport


Time (UTC)DescriptionTempratureWindCloud coverageVisibilityPressureHumidity
18-Apr-2024 00:00Overcast Clouds4°C2 mph, NW99%10000m1009hPa73%
18-Apr-2024 03:00Overcast Clouds3°C2 mph, NE99%10000m1010hPa80%
18-Apr-2024 06:00Overcast Clouds4°C2 mph, N98%10000m1012hPa82%
18-Apr-2024 09:00Light Rain6°C9 mph, N92%10000m1016hPa75%
18-Apr-2024 12:00Light Rain8°C7 mph, NE86%10000m1017hPa62%
18-Apr-2024 15:00Light Rain8°C7 mph, N87%10000m1017hPa70%
18-Apr-2024 18:00Light Rain5°C4 mph, NW63%10000m1018hPa86%
18-Apr-2024 21:00Scattered Clouds2°C2 mph, SW28%10000m1020hPa91%
19-Apr-2024 00:00Broken Clouds2°C4 mph, SW64%10000m1019hPa94%
19-Apr-2024 03:00Overcast Clouds2°C7 mph, SW100%10000m1017hPa92%
19-Apr-2024 06:00Light Rain4°C11 mph, SW100%10000m1015hPa90%
19-Apr-2024 09:00Light Rain3°C13 mph, SW100%357m1012hPa97%
19-Apr-2024 12:00Moderate Rain3°C13 mph, SW100%54m1010hPa97%
19-Apr-2024 15:00Moderate Rain4°C11 mph, SW100%79m1008hPa98%
19-Apr-2024 18:00Light Rain5°C9 mph, W100%10000m1008hPa97%
19-Apr-2024 21:00Light Rain4°C9 mph, W77%10000m1009hPa95%
20-Apr-2024 00:00Light Rain3°C11 mph, W88%3187m1009hPa97%
20-Apr-2024 03:00Moderate Rain4°C13 mph, NW100%74m1010hPa98%
20-Apr-2024 06:00Light Rain3°C11 mph, NW100%4466m1014hPa96%
20-Apr-2024 09:00Light Rain3°C9 mph, NW100%1413m1017hPa97%
20-Apr-2024 12:00Light Rain5°C9 mph, NW100%10000m1020hPa87%
20-Apr-2024 15:00Light Rain7°C9 mph, N76%10000m1020hPa67%
20-Apr-2024 18:00Light Rain3°C4 mph, N82%10000m1022hPa89%
20-Apr-2024 21:00Overcast Clouds2°C2 mph, NW100%10000m1023hPa90%
21-Apr-2024 00:00Overcast Clouds1°C2 mph, SE100%10000m1023hPa92%
21-Apr-2024 03:00Overcast Clouds1°C2 mph, SE100%10000m1023hPa94%
21-Apr-2024 06:00Light Snow1°C4 mph, N100%0m1023hPa99%
21-Apr-2024 09:00Snow3°C9 mph, E100%3469m1024hPa91%
21-Apr-2024 12:00Light Rain6°C11 mph, NE100%10000m1023hPa61%
21-Apr-2024 15:00Overcast Clouds7°C9 mph, NE100%10000m1023hPa55%
21-Apr-2024 18:00Overcast Clouds3°C7 mph, NE99%10000m1024hPa68%
21-Apr-2024 21:00Scattered Clouds-1°C4 mph, NE38%10000m1026hPa91%
22-Apr-2024 00:00Scattered Clouds-3°C4 mph, NE28%10000m1026hPa95%
22-Apr-2024 03:00Clear Sky-3°C4 mph, NE10%10000m1026hPa96%
22-Apr-2024 06:00Few Clouds2°C9 mph, NE12%10000m1024hPa72%
22-Apr-2024 09:00Broken Clouds5°C11 mph, NE69%10000m1024hPa56%
22-Apr-2024 12:00Broken Clouds7°C11 mph, NE83%10000m1023hPa49%
22-Apr-2024 15:00Broken Clouds7°C13 mph, NE66%10000m1022hPa53%
22-Apr-2024 18:00Broken Clouds4°C9 mph, NE78%10000m1022hPa79%
22-Apr-2024 21:00Overcast Clouds2°C11 mph, NE99%10000m1022hPa87%